createdAt,value
2018-06-27T00:01:10.384Z,69.71
2018-06-27T00:03:41.114Z,69.25
2018-06-27T00:06:11.804Z,68.88
2018-06-27T00:08:42.234Z,68.81
2018-06-27T00:11:12.998Z,70.42
2018-06-27T00:13:43.221Z,69.57
2018-06-27T00:16:13.325Z,70.67
2018-06-27T00:18:44.382Z,70.74
2018-06-27T00:21:15.168Z,69.12
2018-06-27T00:23:45.823Z,68.92
2018-06-27T00:26:16.708Z,69.04
2018-06-27T00:28:47.863Z,69.18
2018-06-27T00:31:18.546Z,68.77
2018-06-27T00:33:49.340Z,69.66
2018-06-27T00:36:19.961Z,69.39
2018-06-27T00:38:50.761Z,69.58
2018-06-27T00:41:21.358Z,69.40
2018-06-27T00:43:52.114Z,68.89
2018-06-27T00:46:22.724Z,69.76
2018-06-27T00:48:53.565Z,69.95
2018-06-27T00:51:24.023Z,69.54
2018-06-27T00:53:59.969Z,70.02
2018-06-27T00:56:30.781Z,69.68
2018-06-27T00:59:01.651Z,69.77
2018-06-27T01:01:31.836Z,69.46
2018-06-27T01:04:02.654Z,69.06
2018-06-27T01:06:33.481Z,69.63
2018-06-27T01:09:05.056Z,69.66
2018-06-27T01:11:35.789Z,69.99
2018-06-27T01:14:06.714Z,69.73
2018-06-27T01:16:37.363Z,69.30
2018-06-27T01:19:08.334Z,69.19
2018-06-27T01:21:38.441Z,69.46
2018-06-27T01:24:09.470Z,70.75
2018-06-27T01:26:40.263Z,69.37
2018-06-27T01:29:10.913Z,69.46
2018-06-27T01:31:41.564Z,70.80
2018-06-27T01:34:12.538Z,71.98
2018-06-27T01:36:43.217Z,72.17
2018-06-27T01:39:13.956Z,72.53
2018-06-27T01:41:44.639Z,72.44
2018-06-27T01:44:15.108Z,72.56
2018-06-27T01:46:45.772Z,71.58
2018-06-27T01:49:16.445Z,70.14
2018-06-27T01:51:46.617Z,69.73
2018-06-27T01:54:17.114Z,69.28
2018-06-27T01:56:47.697Z,69.33
2018-06-27T01:59:18.378Z,70.52
2018-06-27T02:01:48.953Z,71.72
2018-06-27T02:04:19.660Z,71.46
2018-06-27T02:06:50.250Z,72.17
2018-06-27T02:09:21.035Z,71.12
2018-06-27T02:11:51.605Z,69.77
2018-06-27T02:14:22.424Z,69.84
2018-06-27T02:16:54.621Z,68.16
2018-06-27T02:19:27.671Z,70.11
2018-06-27T02:21:58.420Z,71.57
2018-06-27T02:24:29.201Z,71.02
2018-06-27T02:26:59.909Z,70.71
2018-06-27T02:29:30.544Z,70.73
2018-06-27T02:32:01.221Z,70.87
2018-06-27T02:34:33.460Z,71.47
2018-06-27T02:37:03.637Z,70.57
2018-06-27T02:39:34.378Z,70.10
2018-06-27T02:42:05.086Z,70.31
2018-06-27T02:44:35.790Z,70.21
2018-06-27T02:47:06.502Z,70.93
2018-06-27T02:49:37.411Z,71.34
2018-06-27T02:52:07.670Z,71.30
2018-06-27T02:54:38.485Z,70.54
2018-06-27T02:57:08.526Z,71.18
2018-06-27T02:59:39.385Z,71.74
2018-06-27T03:02:10.044Z,70.90
2018-06-27T03:04:40.806Z,70.01
2018-06-27T03:09:40.410Z,68.46
2018-06-27T03:12:11.363Z,69.31
2018-06-27T03:14:41.982Z,69.30
2018-06-27T03:17:12.661Z,68.47
2018-06-27T03:19:43.248Z,68.89
2018-06-27T03:22:13.939Z,68.42
2018-06-27T03:24:44.483Z,69.27
2018-06-27T03:27:15.414Z,70.85
2018-06-27T03:29:46.052Z,69.72
2018-06-27T03:32:16.741Z,69.07
2018-06-27T03:34:47.629Z,68.66
2018-06-27T03:37:18.257Z,67.93
2018-06-27T03:39:48.880Z,68.37
2018-06-27T03:42:19.733Z,68.20
2018-06-27T03:44:50.477Z,68.52
2018-06-27T03:47:21.487Z,69.61
2018-06-27T03:49:52.056Z,70.79
2018-06-27T03:52:23.874Z,70.47
2018-06-27T03:54:54.512Z,70.50
2018-06-27T03:57:25.440Z,69.31
2018-06-27T03:59:56.085Z,68.77
2018-06-27T04:02:26.889Z,69.14
2018-06-27T04:04:57.528Z,68.19
2018-06-27T04:07:28.313Z,67.53
2018-06-27T04:09:59.025Z,67.47
2018-06-27T04:12:29.711Z,67.78
2018-06-27T04:15:00.360Z,68.45
2018-06-27T04:17:31.645Z,67.80
2018-06-27T04:20:02.469Z,66.34
2018-06-27T04:22:36.211Z,65.75
2018-06-27T04:25:06.524Z,64.76
2018-06-27T04:27:37.384Z,65.64
2018-06-27T04:30:08.028Z,65.94
2018-06-27T04:32:38.837Z,66.37
2018-06-27T04:35:09.164Z,66.76
2018-06-27T04:37:39.440Z,67.08
2018-06-27T04:40:10.077Z,65.78
2018-06-27T04:42:40.929Z,66.41
2018-06-27T04:45:11.514Z,65.96
2018-06-27T04:47:42.376Z,66.75
2018-06-27T04:50:13.058Z,64.84
2018-06-27T04:52:43.805Z,64.54
2018-06-27T04:55:14.733Z,64.42
2018-06-27T04:57:45.677Z,62.67
2018-06-27T05:00:16.394Z,63.95
2018-06-27T05:02:47.372Z,64.40
2018-06-27T05:05:18.110Z,64.21
2018-06-27T05:07:48.814Z,63.83
2018-06-27T05:10:19.495Z,61.90
2018-06-27T05:12:49.994Z,62.44
2018-06-27T05:15:20.743Z,64.34
2018-06-27T05:17:51.658Z,64.15
2018-06-27T05:20:22.326Z,63.93
2018-06-27T05:22:53.162Z,62.67
2018-06-27T05:25:23.910Z,62.73
2018-06-27T05:27:54.766Z,64.13
2018-06-27T05:30:24.869Z,64.10
2018-06-27T05:32:55.634Z,64.91
2018-06-27T05:35:26.365Z,63.35
2018-06-27T05:37:57.013Z,65.37
2018-06-27T05:40:27.698Z,63.32
2018-06-27T05:42:58.641Z,64.86
2018-06-27T05:45:28.909Z,63.61
2018-06-27T05:47:59.580Z,63.13
2018-06-27T05:50:30.271Z,63.52
2018-06-27T05:53:02.131Z,64.47
2018-06-27T05:55:32.598Z,64.61
2018-06-27T05:58:02.966Z,64.99
2018-06-27T06:00:33.628Z,63.93
2018-06-27T06:03:04.633Z,63.26
2018-06-27T06:05:35.321Z,64.03
2018-06-27T06:08:06.153Z,63.34
2018-06-27T06:10:36.660Z,63.73
2018-06-27T06:13:07.634Z,64.21
2018-06-27T06:15:38.337Z,62.76
2018-06-27T06:18:09.017Z,63.88
2018-06-27T06:20:39.206Z,62.71
2018-06-27T06:23:10.263Z,63.05
2018-06-27T06:25:40.361Z,65.44
2018-06-27T06:28:11.234Z,62.62
2018-06-27T06:30:41.957Z,66.38
2018-06-27T06:33:12.246Z,64.07
2018-06-27T06:35:42.991Z,65.18
2018-06-27T06:38:13.793Z,63.86
2018-06-27T06:40:44.573Z,63.83
2018-06-27T06:43:15.600Z,63.11
2018-06-27T06:45:46.318Z,63.98
2018-06-27T06:48:17.670Z,62.95
2018-06-27T06:50:48.391Z,62.95
2018-06-27T06:53:19.185Z,63.95
2018-06-27T06:55:49.345Z,62.35
2018-06-27T06:58:20.087Z,62.07
2018-06-27T07:00:50.757Z,62.33
2018-06-27T07:03:21.425Z,64.97
2018-06-27T07:05:52.093Z,64.13
2018-06-27T07:08:22.814Z,65.32
2018-06-27T07:10:53.489Z,65.28
2018-06-27T07:13:23.756Z,65.15
2018-06-27T07:15:54.329Z,66.63
2018-06-27T07:18:25.286Z,67.35
2018-06-27T07:20:55.380Z,69.72
2018-06-27T07:23:26.089Z,70.05
2018-06-27T07:25:56.701Z,70.76
2018-06-27T07:28:27.335Z,71.37
2018-06-27T07:30:58.446Z,71.41
2018-06-27T07:33:29.235Z,71.88
2018-06-27T07:35:59.840Z,72.01
2018-06-27T07:38:30.483Z,72.83
2018-06-27T07:41:01.358Z,73.04
2018-06-27T07:43:32.065Z,71.46
2018-06-27T07:46:03.235Z,69.61
2018-06-27T07:48:33.862Z,68.58
2018-06-27T07:51:04.551Z,67.52
2018-06-27T07:53:35.283Z,71.04
2018-06-27T07:56:06.452Z,71.14
2018-06-27T07:58:37.083Z,71.33
2018-06-27T08:01:07.894Z,70.97
2018-06-27T08:03:38.598Z,72.14
2018-06-27T08:06:09.690Z,72.78
2018-06-27T08:08:40.475Z,72.94
2018-06-27T08:11:10.884Z,72.52
2018-06-27T08:13:41.468Z,72.25
2018-06-27T08:16:12.142Z,73.71
2018-06-27T08:18:43.922Z,73.24
2018-06-27T08:21:15.030Z,72.77
2018-06-27T08:23:45.582Z,72.18
2018-06-27T08:26:16.440Z,71.79
2018-06-27T08:28:47.166Z,70.00
2018-06-27T08:31:17.960Z,67.82
2018-06-27T08:33:48.514Z,66.69
2018-06-27T08:36:19.414Z,68.88
2018-06-27T08:38:50.086Z,66.27
2018-06-27T08:41:20.850Z,63.58
2018-06-27T08:43:51.074Z,64.14
2018-06-27T08:46:21.925Z,63.00
2018-06-27T08:48:52.547Z,60.66
2018-06-27T08:51:23.321Z,56.72
2018-06-27T08:53:54.005Z,59.49
2018-06-27T08:56:24.862Z,57.30
2018-06-27T08:58:56.243Z,55.06
2018-06-27T09:01:26.477Z,56.29
2018-06-27T09:03:56.701Z,56.02
2018-06-27T09:06:26.702Z,56.31
2018-06-27T09:08:57.685Z,56.28
2018-06-27T09:11:28.609Z,54.95
2018-06-27T09:13:59.613Z,58.07
2018-06-27T09:16:30.509Z,55.00
2018-06-27T09:19:01.525Z,58.25
2018-06-27T09:21:32.340Z,57.34
2018-06-27T09:24:04.352Z,57.99
2018-06-27T09:26:35.414Z,56.29
2018-06-27T09:29:06.721Z,61.21
2018-06-27T09:31:38.698Z,55.59
2018-06-27T09:34:10.179Z,58.58
2018-06-27T09:36:41.208Z,59.31
2018-06-27T09:39:12.669Z,60.49
2018-06-27T09:41:43.898Z,58.03
2018-06-27T09:44:15.005Z,56.69
2018-06-27T09:46:46.943Z,59.37
2018-06-27T09:49:18.092Z,61.27
2018-06-27T09:51:49.456Z,57.69
2018-06-27T09:54:21.220Z,57.03
2018-06-27T09:56:52.289Z,59.34
2018-06-27T09:59:23.833Z,58.97
2018-06-27T10:01:54.996Z,60.20
2018-06-27T10:04:25.492Z,62.29
2018-06-27T10:06:57.004Z,60.78
2018-06-27T10:09:28.400Z,57.55
2018-06-27T10:11:59.948Z,57.96
2018-06-27T10:14:31.460Z,59.16
2018-06-27T10:17:04.115Z,59.42
2018-06-27T10:19:34.968Z,56.16
2018-06-27T10:22:06.096Z,59.10
2018-06-27T10:24:37.167Z,58.37
2018-06-27T10:27:08.085Z,58.82
2018-06-27T10:29:39.292Z,59.18
2018-06-27T10:32:10.280Z,59.68
2018-06-27T10:34:41.488Z,55.53
2018-06-27T10:37:12.740Z,56.41
2018-06-27T10:39:44.992Z,56.05
2018-06-27T10:42:17.090Z,58.19
2018-06-27T10:44:49.221Z,57.59
2018-06-27T10:47:20.250Z,56.92
2018-06-27T10:49:51.296Z,58.48
2018-06-27T10:52:22.920Z,57.98
2018-06-27T10:54:54.969Z,57.31
2018-06-27T10:57:26.898Z,59.24
2018-06-27T10:59:58.001Z,59.24
2018-06-27T11:02:29.936Z,57.42
2018-06-27T11:05:01.545Z,58.95
2018-06-27T11:07:33.433Z,58.81
2018-06-27T11:10:04.937Z,59.28
2018-06-27T11:12:36.005Z,57.53
2018-06-27T11:15:07.940Z,57.88
2018-06-27T11:17:38.950Z,57.05
2018-06-27T11:20:10.148Z,56.94
2018-06-27T11:22:41.375Z,56.46
2018-06-27T11:25:13.369Z,54.67
2018-06-27T11:27:44.469Z,56.95
2018-06-27T11:30:15.872Z,58.27
2018-06-27T11:32:46.970Z,60.83
2018-06-27T11:35:18.544Z,60.77
2018-06-27T11:37:49.590Z,58.78
2018-06-27T11:40:20.701Z,59.24
2018-06-27T11:42:51.716Z,59.41
2018-06-27T11:45:22.822Z,57.47
2018-06-27T11:47:54.620Z,58.39
2018-06-27T11:50:26.613Z,56.44
2018-06-27T11:52:57.801Z,58.90
2018-06-27T11:55:29.068Z,58.70
2018-06-27T11:58:00.499Z,59.38
2018-06-27T12:00:31.838Z,59.79
2018-06-27T12:03:02.716Z,60.41
2018-06-27T12:05:33.999Z,60.84
2018-06-27T12:08:05.094Z,60.85
2018-06-27T12:10:36.273Z,59.60
2018-06-27T12:13:07.222Z,56.56
2018-06-27T12:15:38.380Z,59.15
2018-06-27T12:18:09.434Z,56.12
2018-06-27T12:20:40.765Z,54.63
2018-06-27T12:23:11.801Z,56.34
2018-06-27T12:25:42.914Z,57.66
2018-06-27T12:28:13.892Z,55.44
2018-06-27T12:30:45.376Z,55.14
2018-06-27T12:33:16.404Z,56.30
2018-06-27T12:35:47.805Z,55.50
2018-06-27T12:38:18.860Z,54.90
2018-06-27T12:40:49.939Z,55.42
2018-06-27T12:43:20.896Z,54.87
2018-06-27T12:45:52.165Z,52.92
2018-06-27T12:48:23.385Z,55.20
2018-06-27T12:50:54.437Z,52.95
2018-06-27T12:53:25.412Z,52.55
2018-06-27T12:55:56.195Z,53.88
2018-06-27T12:58:27.497Z,55.92
2018-06-27T13:00:57.984Z,55.20
2018-06-27T13:03:29.077Z,54.23
2018-06-27T13:06:00.284Z,53.89
2018-06-27T13:08:31.296Z,54.35
2018-06-27T13:11:02.265Z,53.44
2018-06-27T13:13:33.430Z,52.04
2018-06-27T13:16:04.407Z,50.50
2018-06-27T13:18:35.399Z,49.18
2018-06-27T13:21:06.866Z,49.30
2018-06-27T13:23:37.393Z,48.10
2018-06-27T13:26:07.966Z,47.74
2018-06-27T13:28:38.959Z,49.34
2018-06-27T13:31:10.351Z,50.40
2018-06-27T13:33:41.587Z,50.75
2018-06-27T13:36:13.063Z,52.11
2018-06-27T13:38:44.057Z,52.56
2018-06-27T13:41:15.161Z,53.63
2018-06-27T13:43:46.738Z,51.91
2018-06-27T13:46:17.702Z,51.40
2018-06-27T13:48:48.739Z,53.28
2018-06-27T13:51:19.760Z,51.37
2018-06-27T13:53:50.224Z,51.31
2018-06-27T13:56:21.208Z,53.35
2018-06-27T13:58:52.082Z,54.01
2018-06-27T14:01:23.979Z,56.49
2018-06-27T14:03:55.204Z,53.48
2018-06-27T14:06:26.375Z,53.83
2018-06-27T14:08:57.532Z,53.34
2018-06-27T14:11:28.725Z,53.11
2018-06-27T14:13:59.808Z,53.87
2018-06-27T14:16:30.885Z,54.11
2018-06-27T14:19:01.413Z,53.02
2018-06-27T14:21:31.732Z,50.14
2018-06-27T14:24:02.894Z,52.66
2018-06-27T14:26:33.807Z,51.95
2018-06-27T14:29:05.043Z,51.12
2018-06-27T14:31:36.184Z,54.37
2018-06-27T14:34:07.322Z,53.71
2018-06-27T14:36:38.285Z,52.81
2018-06-27T14:39:11.280Z,50.93
2018-06-27T14:41:42.388Z,51.40
2018-06-27T14:44:13.405Z,50.71
2018-06-27T14:46:44.407Z,51.08
2018-06-27T14:49:15.717Z,49.87
2018-06-27T14:51:46.770Z,47.13
2018-06-27T14:54:17.971Z,47.86
2018-06-27T14:56:48.849Z,48.94
2018-06-27T14:59:20.034Z,48.33
2018-06-27T15:01:51.005Z,50.95
2018-06-27T15:04:21.831Z,51.72
2018-06-27T15:06:52.460Z,51.39
2018-06-27T15:09:23.468Z,51.65
2018-06-27T15:11:54.101Z,51.19
2018-06-27T15:14:25.102Z,51.79
2018-06-27T15:16:56.122Z,49.88
2018-06-27T15:19:27.137Z,50.64
2018-06-27T15:21:58.177Z,51.25
2018-06-27T15:24:29.246Z,51.27
2018-06-27T15:26:59.890Z,50.45
2018-06-27T15:29:30.906Z,48.80
2018-06-27T15:32:01.467Z,48.30
2018-06-27T15:34:32.566Z,48.19
2018-06-27T15:37:03.324Z,46.79
2018-06-27T15:39:34.497Z,49.51
2018-06-27T15:42:05.216Z,48.30
2018-06-27T15:44:35.742Z,50.99
2018-06-27T15:47:06.542Z,49.90
2018-06-27T15:49:37.626Z,49.67
2018-06-27T15:52:08.284Z,51.81
2018-06-27T15:54:38.491Z,53.03
2018-06-27T15:57:09.305Z,54.38
2018-06-27T15:59:44.899Z,55.94
2018-06-27T16:02:15.737Z,59.37
2018-06-27T16:04:46.719Z,59.54
2018-06-27T16:07:17.386Z,61.11
2018-06-27T16:09:49.238Z,61.10
2018-06-27T16:12:20.140Z,61.69
2018-06-27T16:14:51.082Z,62.57
2018-06-27T16:17:21.936Z,62.36
2018-06-27T16:19:51.917Z,63.54
2018-06-27T16:22:22.646Z,63.79
2018-06-27T16:24:53.524Z,63.11
2018-06-27T16:27:24.253Z,63.16
2018-06-27T16:29:55.353Z,62.58
2018-06-27T16:32:26.082Z,63.12
2018-06-27T16:34:56.859Z,63.65
2018-06-27T16:37:27.538Z,64.42
2018-06-27T16:39:58.451Z,64.99
2018-06-27T16:42:29.222Z,65.38
2018-06-27T16:44:59.965Z,64.96
2018-06-27T16:47:30.698Z,65.72
2018-06-27T16:50:01.559Z,65.38
2018-06-27T16:52:32.259Z,65.81
2018-06-27T16:55:03.119Z,65.74
2018-06-27T16:57:33.834Z,66.09
2018-06-27T17:00:04.859Z,66.92
2018-06-27T17:02:34.942Z,66.28
2018-06-27T17:05:05.975Z,65.84
2018-06-27T17:07:36.944Z,66.25
2018-06-27T17:10:07.441Z,65.99
2018-06-27T17:12:38.078Z,66.19
2018-06-27T17:15:08.758Z,66.69
2018-06-27T17:17:39.439Z,67.10
2018-06-27T17:20:10.214Z,67.54
2018-06-27T17:22:40.962Z,67.44
2018-06-27T17:25:12.248Z,67.62
2018-06-27T17:27:42.990Z,67.43
2018-06-27T17:30:13.717Z,66.76
2018-06-27T17:32:44.203Z,67.41
2018-06-27T17:35:14.994Z,68.23
2018-06-27T17:37:45.771Z,67.39
2018-06-27T17:40:16.528Z,67.16
2018-06-27T17:42:47.878Z,68.20
2018-06-27T17:45:18.854Z,68.05
2018-06-27T17:47:49.518Z,67.12
2018-06-27T17:50:20.330Z,67.61
2018-06-27T17:52:51.020Z,68.12
2018-06-27T17:55:22.035Z,67.87
2018-06-27T17:57:52.854Z,67.69
2018-06-27T18:00:23.134Z,67.12
2018-06-27T18:02:53.920Z,68.17
2018-06-27T18:05:24.690Z,66.90
2018-06-27T18:07:55.342Z,67.30
2018-06-27T18:10:26.082Z,67.05
2018-06-27T18:12:56.871Z,66.65
2018-06-27T18:15:27.555Z,66.18
2018-06-27T18:17:58.280Z,66.45
2018-06-27T18:20:29.069Z,66.40
2018-06-27T18:22:59.759Z,64.84
2018-06-27T18:25:31.956Z,64.29
2018-06-27T18:28:03.470Z,65.46
2018-06-27T18:30:34.631Z,66.45
2018-06-27T18:33:05.410Z,66.02
2018-06-27T18:35:36.942Z,65.75
2018-06-27T18:38:07.842Z,66.54
2018-06-27T18:40:38.484Z,68.45
2018-06-27T18:43:09.102Z,69.72
2018-06-27T18:45:39.530Z,70.63
2018-06-27T18:48:10.219Z,70.14
2018-06-27T18:50:40.955Z,69.94
2018-06-27T18:53:11.581Z,68.88
2018-06-27T18:55:42.320Z,69.59
2018-06-27T18:58:13.406Z,68.42
2018-06-27T19:00:44.189Z,67.83
2018-06-27T19:03:16.164Z,68.52
2018-06-27T19:05:46.580Z,67.64
2018-06-27T19:08:17.161Z,68.23
2018-06-27T19:10:48.938Z,68.46
2018-06-27T19:13:19.622Z,68.13
2018-06-27T19:15:50.486Z,67.97
2018-06-27T19:18:21.570Z,67.43
2018-06-27T19:20:52.414Z,67.62
2018-06-27T19:23:23.094Z,67.73
2018-06-27T19:25:53.890Z,67.54
2018-06-27T19:28:24.584Z,67.75
2018-06-27T19:30:55.362Z,67.71
2018-06-27T19:33:26.106Z,68.11
2018-06-27T19:35:56.201Z,68.15
2018-06-27T19:38:27.001Z,67.76
2018-06-27T19:40:57.941Z,67.78
2018-06-27T19:43:28.630Z,68.87
2018-06-27T19:45:59.466Z,69.25
2018-06-27T19:48:30.151Z,70.25
2018-06-27T19:51:00.723Z,69.87
2018-06-27T19:53:30.817Z,68.70
2018-06-27T19:56:01.402Z,69.40
2018-06-27T19:58:31.960Z,69.00
2018-06-27T20:01:02.693Z,68.74
2018-06-27T20:03:33.267Z,68.87
2018-06-27T20:06:04.755Z,68.85
2018-06-27T20:08:35.502Z,69.03
2018-06-27T20:11:06.162Z,69.24
2018-06-27T20:13:36.702Z,68.42
2018-06-27T20:16:07.676Z,68.45
2018-06-27T20:18:38.074Z,68.29
2018-06-27T20:21:08.325Z,68.68
2018-06-27T20:23:39.051Z,68.12
2018-06-27T20:26:09.777Z,67.78
2018-06-27T20:28:40.514Z,67.29
2018-06-27T20:31:11.556Z,67.50
2018-06-27T20:33:42.107Z,68.23
2018-06-27T20:36:12.859Z,68.55
2018-06-27T20:38:43.609Z,68.84
2018-06-27T20:41:14.820Z,68.24
2018-06-27T20:43:45.461Z,67.28
2018-06-27T20:46:16.510Z,66.92
2018-06-27T20:48:47.202Z,67.33
2018-06-27T20:51:17.870Z,67.44
2018-06-27T20:53:48.510Z,66.83
2018-06-27T20:56:19.495Z,67.41
2018-06-27T20:58:50.153Z,66.60
2018-06-27T21:01:20.855Z,66.94
2018-06-27T21:03:51.658Z,67.31
2018-06-27T21:06:22.355Z,67.17
2018-06-27T21:08:53.958Z,66.52
2018-06-27T21:11:25.633Z,67.29
2018-06-27T21:13:56.206Z,68.61
2018-06-27T21:16:27.266Z,67.79
2018-06-27T21:18:58.131Z,68.38
2018-06-27T21:21:28.937Z,69.21
2018-06-27T21:23:59.563Z,68.88
2018-06-27T21:26:30.574Z,69.12
2018-06-27T21:29:01.344Z,68.81
2018-06-27T21:31:32.046Z,68.85
2018-06-27T21:34:02.637Z,68.56
2018-06-27T21:36:33.665Z,69.02
2018-06-27T21:39:05.368Z,69.23
2018-06-27T21:41:36.024Z,69.95
2018-06-27T21:44:06.967Z,70.05
2018-06-27T21:46:37.801Z,70.08
2018-06-27T21:49:08.439Z,70.41
2018-06-27T21:51:39.345Z,69.74
2018-06-27T21:54:10.001Z,68.04
2018-06-27T21:56:40.679Z,68.32
2018-06-27T21:59:10.942Z,68.16
2018-06-27T22:01:42.851Z,68.40
2018-06-27T22:04:14.582Z,69.48
2018-06-27T22:06:45.312Z,68.40
2018-06-27T22:09:16.077Z,68.09
2018-06-27T22:11:46.824Z,68.91
2018-06-27T22:14:17.793Z,68.56
2018-06-27T22:16:48.517Z,68.03
2018-06-27T22:19:19.353Z,67.48
2018-06-27T22:21:50.037Z,67.39
2018-06-27T22:24:21.096Z,68.07
2018-06-27T22:26:53.438Z,68.57
2018-06-27T22:29:24.121Z,67.52
2018-06-27T22:31:54.941Z,67.79
2018-06-27T22:34:25.153Z,67.54
2018-06-27T22:36:55.770Z,67.79
2018-06-27T22:39:26.998Z,67.35
2018-06-27T22:41:57.632Z,67.69
2018-06-27T22:44:28.546Z,67.26
2018-06-27T22:46:59.258Z,66.86
2018-06-27T22:49:29.837Z,67.66
2018-06-27T22:52:00.495Z,67.36
2018-06-27T22:54:31.161Z,67.14
2018-06-27T22:57:01.824Z,67.54
2018-06-27T22:59:32.511Z,66.33
2018-06-27T23:02:03.538Z,66.29
2018-06-27T23:04:34.507Z,68.75
2018-06-27T23:07:05.222Z,68.04
2018-06-27T23:09:36.213Z,68.94
2018-06-27T23:12:06.785Z,68.17
2018-06-27T23:14:36.973Z,67.79
2018-06-27T23:17:07.592Z,67.13
2018-06-27T23:19:38.444Z,67.51
2018-06-27T23:22:18.481Z,67.19
2018-06-27T23:24:49.306Z,67.52
2018-06-27T23:27:19.955Z,67.45
2018-06-27T23:29:50.739Z,67.61
2018-06-27T23:32:20.994Z,67.63
2018-06-27T23:34:51.774Z,66.66
2018-06-27T23:37:22.523Z,67.07
2018-06-27T23:39:53.326Z,66.71
2018-06-27T23:42:24.049Z,66.02
2018-06-27T23:44:54.902Z,66.22
2018-06-27T23:47:25.574Z,66.38
2018-06-27T23:49:56.406Z,66.95
2018-06-27T23:52:27.093Z,66.63
2018-06-27T23:54:57.673Z,66.92
2018-06-27T23:57:28.342Z,67.10
2018-06-27T23:59:59.036Z,66.27
